Changi, Singapore
Current Conditions -  °F | °C
As of 2:30 AM on Monday 24 Nov 2014 (Local Time) from WSSS Reporting Station
Rain Showers Rain Showers  
Wind Chill: 79°   Ceiling: Unl
Heat Index: 83°   Visibility: 4mi
Dew Point: 77°   Wind: 3mph
Humidity: 94%   Direction: 340°NNW
Pressure: 29.83"   Gusts: NA
Location:  1.39°N, 103.98°E
Report Text: WSSS 231830Z 34003KT 310V090 6000 -SHRA FEW016TCU FEW018CBSCT260 26/25 Q1010 RESHRA NOSIG
Loading
Personal Weather Stations






























Interactive Weather Map New forecast layout! Learn more

10-Day Weather Forecast

Advertisements
Track Severe Weather on mobile